createdAt,value
2017-11-15T15:50:16.043Z,1019.53
2017-11-15T15:51:14.990Z,1019.58
2017-11-15T15:53:08.294Z,1019.55
2017-11-15T15:54:08.311Z,1019.51
2017-11-15T15:55:08.305Z,1019.53
2017-11-15T15:56:08.308Z,1019.53
2017-11-15T15:57:08.323Z,1019.49
2017-11-15T15:58:08.326Z,1019.49
2017-11-15T15:59:08.328Z,1019.52
2017-11-15T16:00:08.341Z,1019.50
2017-11-15T16:01:08.344Z,1019.50
2017-11-15T16:02:08.350Z,1019.52
2017-11-15T16:03:08.371Z,1019.49
2017-11-15T16:04:08.377Z,1019.53
2017-11-15T16:05:08.389Z,1019.56
2017-11-15T16:06:08.482Z,1019.56
2017-11-15T16:07:08.402Z,1019.50
2017-11-15T16:08:08.489Z,1019.55
2017-11-15T16:09:08.429Z,1019.52
2017-11-15T16:10:08.425Z,1019.52
2017-11-15T16:11:08.512Z,1019.55
2017-11-15T16:12:08.451Z,1019.54
2017-11-15T16:13:08.531Z,1019.50
2017-11-15T16:14:08.465Z,1019.54
2017-11-15T16:15:08.543Z,1019.52
2017-11-15T16:16:08.482Z,1019.55
2017-11-15T16:17:08.552Z,1019.55
2017-11-15T16:18:08.496Z,1019.54
2017-11-15T16:19:09.595Z,1019.59
2017-11-15T16:20:08.514Z,1019.55
2017-11-15T16:21:08.584Z,1019.54
2017-11-15T16:22:08.536Z,1019.55
2017-11-15T16:23:08.587Z,1019.56
2017-11-15T16:24:08.551Z,1019.59
2017-11-15T16:25:08.569Z,1019.57
2017-11-15T16:26:08.609Z,1019.64
2017-11-15T16:27:08.597Z,1019.54
2017-11-15T16:28:08.586Z,1019.57
2017-11-15T16:29:08.598Z,1019.59
2017-11-15T16:30:08.616Z,1019.56
2017-11-15T16:31:08.615Z,1019.55
2017-11-15T16:32:08.623Z,1019.57
2017-11-15T16:33:08.628Z,1019.61
2017-11-15T16:34:08.653Z,1019.63
2017-11-15T16:35:08.677Z,1019.65
2017-11-15T16:36:08.769Z,1019.66
2017-11-15T16:37:08.671Z,1019.61
2017-11-15T16:38:08.781Z,1019.62
2017-11-15T16:39:08.686Z,1019.62
2017-11-15T16:40:08.794Z,1019.62
2017-11-15T16:41:08.701Z,1019.64
2017-11-15T16:42:08.707Z,1019.60
2017-11-15T16:43:08.826Z,1019.60
2017-11-15T16:44:08.732Z,1019.60
2017-11-15T16:45:08.736Z,1019.58
2017-11-15T16:46:08.820Z,1019.53
2017-11-15T16:47:08.750Z,1019.60
2017-11-15T16:48:08.890Z,1019.65
2017-11-15T16:49:08.770Z,1019.63
2017-11-15T16:50:08.782Z,1019.62
2017-11-15T16:51:08.815Z,1019.63
2017-11-15T16:52:08.799Z,1019.66
2017-11-15T16:53:08.809Z,1019.66
2017-11-15T16:54:08.866Z,1019.68
2017-11-15T16:55:08.819Z,1019.67
2017-11-15T16:56:08.826Z,1019.62
2017-11-15T16:57:08.846Z,1019.60
2017-11-15T16:58:09.952Z,1019.61
2017-11-15T16:59:08.851Z,1019.61
2017-11-15T17:00:08.915Z,1019.54
2017-11-15T17:01:08.867Z,1019.52
2017-11-15T17:02:08.885Z,1019.60
2017-11-15T17:03:08.950Z,1019.56
2017-11-15T17:04:08.896Z,1019.57
2017-11-15T17:05:08.902Z,1019.52
2017-11-15T17:06:08.916Z,1019.57
2017-11-15T17:07:08.967Z,1019.56
2017-11-15T17:08:08.930Z,1019.53
2017-11-15T17:09:08.931Z,1019.55
2017-11-15T17:10:08.944Z,1019.56
2017-11-15T17:11:08.954Z,1019.53
2017-11-15T17:12:08.972Z,1019.52
2017-11-15T17:13:08.980Z,1019.53
2017-11-15T17:14:08.997Z,1019.52
2017-11-15T17:15:08.989Z,1019.51
2017-11-15T17:16:08.993Z,1019.49
2017-11-15T17:17:09.011Z,1019.46
2017-11-15T17:18:09.008Z,1019.55
2017-11-15T17:19:09.024Z,1019.51
2017-11-15T17:20:09.026Z,1019.46
2017-11-15T17:21:09.034Z,1019.53
2017-11-15T17:22:09.153Z,1019.52
2017-11-15T17:23:09.059Z,1019.51
2017-11-15T17:24:09.067Z,1019.55
2017-11-15T17:25:09.173Z,1019.52
2017-11-15T17:26:09.082Z,1019.54
2017-11-15T17:27:09.191Z,1019.55
2017-11-15T17:28:09.129Z,1019.52
2017-11-15T17:29:09.120Z,1019.51
2017-11-15T17:30:10.226Z,1019.56
2017-11-15T17:31:09.129Z,1019.50
2017-11-15T17:32:09.219Z,1019.52
2017-11-15T17:33:09.138Z,1019.49
2017-11-15T17:34:10.269Z,1019.49
2017-11-15T17:35:09.160Z,1019.47
2017-11-15T17:36:11.194Z,1019.45
2017-11-15T17:37:09.185Z,1019.50
2017-11-15T17:38:10.312Z,1019.47
2017-11-15T17:39:09.193Z,1019.43
2017-11-15T17:40:09.276Z,1019.46
2017-11-15T17:41:09.210Z,1019.49
2017-11-15T17:42:09.289Z,1019.49
2017-11-15T17:43:09.229Z,1019.48
2017-11-15T17:44:10.331Z,1019.51
2017-11-15T17:45:09.244Z,1019.52
2017-11-15T17:46:10.344Z,1019.57
2017-11-15T17:47:09.261Z,1019.57
2017-11-15T17:48:09.320Z,1019.56
2017-11-15T17:49:09.282Z,1019.57
2017-11-15T17:50:09.336Z,1019.59
2017-11-15T17:51:09.295Z,1019.59
2017-11-15T17:52:09.319Z,1019.58
2017-11-15T17:53:09.317Z,1019.59
2017-11-15T17:54:09.329Z,1019.58
2017-11-15T17:55:09.330Z,1019.63
2017-11-15T17:56:09.385Z,1019.60
2017-11-15T17:57:09.345Z,1019.55
2017-11-15T17:58:09.398Z,1019.60
2017-11-15T17:59:09.359Z,1019.61
2017-11-15T18:00:09.370Z,1019.62
2017-11-15T18:01:09.380Z,1019.62
2017-11-15T18:02:09.384Z,1019.65
2017-11-15T18:03:09.433Z,1019.65
2017-11-15T18:04:09.412Z,1019.69
2017-11-15T18:05:09.414Z,1019.70
2017-11-15T18:06:09.453Z,1019.70
2017-11-15T18:07:09.425Z,1019.66
2017-11-15T18:08:09.592Z,1019.66
2017-11-15T18:09:09.448Z,1019.67
2017-11-15T18:10:09.481Z,1019.65
2017-11-15T18:11:09.461Z,1019.65
2017-11-15T18:12:09.494Z,1019.66
2017-11-15T18:13:09.485Z,1019.61
2017-11-15T18:14:09.485Z,1019.60
2017-11-15T18:15:09.489Z,1019.57
2017-11-15T18:16:09.506Z,1019.58
2017-11-15T18:17:11.587Z,1019.59
2017-11-15T18:18:09.521Z,1019.63
2017-11-15T18:19:09.540Z,1019.57
2017-11-15T18:20:09.543Z,1019.62
2017-11-15T18:21:09.579Z,1019.64
2017-11-15T18:22:09.668Z,1019.60
2017-11-15T18:23:09.561Z,1019.59
2017-11-15T18:24:09.632Z,1019.60
2017-11-15T18:25:09.584Z,1019.56
2017-11-15T18:26:09.642Z,1019.61
2017-11-15T18:27:09.592Z,1019.57
2017-11-15T18:28:09.655Z,1019.55
2017-11-15T18:29:09.608Z,1019.52
2017-11-15T18:30:09.669Z,1019.56
2017-11-15T18:31:09.625Z,1019.49
2017-11-15T18:32:09.687Z,1019.50
2017-11-15T18:33:09.674Z,1019.52
2017-11-15T18:34:09.657Z,1019.50
2017-11-15T18:35:09.708Z,1019.52
2017-11-15T18:36:09.674Z,1019.51
2017-11-15T18:37:09.719Z,1019.51
2017-11-15T18:38:09.683Z,1019.59
2017-11-15T18:39:09.760Z,1019.59
2017-11-15T18:40:09.708Z,1019.63
2017-11-15T18:41:09.798Z,1019.61
2017-11-15T18:42:09.726Z,1019.66
2017-11-15T18:43:09.806Z,1019.69
2017-11-15T18:44:09.737Z,1019.60
2017-11-15T18:45:09.819Z,1019.62
2017-11-15T18:46:09.757Z,1019.67
2017-11-15T18:47:09.883Z,1019.63
2017-11-15T18:48:09.771Z,1019.68
2017-11-15T18:49:09.848Z,1019.61
2017-11-15T18:50:09.788Z,1019.62
2017-11-15T18:51:09.861Z,1019.60
2017-11-15T18:52:09.815Z,1019.57
2017-11-15T18:53:09.878Z,1019.55
2017-11-15T18:54:09.818Z,1019.59
2017-11-15T18:55:09.830Z,1019.59
2017-11-15T18:56:09.839Z,1019.57
2017-11-15T18:57:09.899Z,1019.56
2017-11-15T18:58:09.858Z,1019.53
2017-11-15T18:59:09.913Z,1019.54
2017-11-15T19:00:09.871Z,1019.56
2017-11-15T19:01:09.928Z,1019.53
2017-11-15T19:02:09.883Z,1019.54
2017-11-15T19:03:09.943Z,1019.52
2017-11-15T19:04:09.897Z,1019.45
2017-11-15T19:05:09.980Z,1019.47
2017-11-15T19:06:09.918Z,1019.46
2017-11-15T19:07:09.970Z,1019.48
2017-11-15T19:08:09.946Z,1019.49
2017-11-15T19:09:09.976Z,1019.48
2017-11-15T19:10:09.943Z,1019.50
2017-11-15T19:11:09.994Z,1019.50
2017-11-15T19:12:09.986Z,1019.53
2017-11-15T19:13:10.005Z,1019.53
2017-11-15T19:14:09.979Z,1019.50
2017-11-15T19:15:10.023Z,1019.56
2017-11-15T19:16:10.006Z,1019.56
2017-11-15T19:17:10.033Z,1019.60
2017-11-15T19:18:10.020Z,1019.50
2017-11-15T19:19:10.050Z,1019.56
2017-11-15T19:20:10.049Z,1019.53
2017-11-15T19:21:10.064Z,1019.54
2017-11-15T19:22:10.050Z,1019.52
2017-11-15T19:23:10.080Z,1019.53
2017-11-15T19:24:10.066Z,1019.47
2017-11-15T19:25:10.094Z,1019.45
2017-11-15T19:26:10.082Z,1019.46
2017-11-15T19:27:10.108Z,1019.46
2017-11-15T19:28:10.099Z,1019.47
2017-11-15T19:29:10.222Z,1019.47
2017-11-15T19:30:10.112Z,1019.53
2017-11-15T19:31:10.237Z,1019.50
2017-11-15T19:32:10.134Z,1019.54
2017-11-15T19:33:10.269Z,1019.54
2017-11-15T19:34:10.152Z,1019.54
2017-11-15T19:35:10.157Z,1019.57
2017-11-15T19:36:10.166Z,1019.55
2017-11-15T19:37:10.278Z,1019.54
2017-11-15T19:38:10.183Z,1019.55
2017-11-15T19:39:10.287Z,1019.54
2017-11-15T19:40:10.200Z,1019.54
2017-11-15T19:41:10.306Z,1019.58
2017-11-15T19:42:10.214Z,1019.59
2017-11-15T19:43:10.229Z,1019.53
2017-11-15T19:44:10.230Z,1019.52
2017-11-15T19:45:10.350Z,1019.57
2017-11-15T19:46:10.298Z,1019.56
2017-11-15T19:47:10.278Z,1019.54
2017-11-15T19:48:10.265Z,1019.54
2017-11-15T19:49:10.299Z,1019.52
2017-11-15T19:50:10.281Z,1019.50
2017-11-15T19:51:10.312Z,1019.48
2017-11-15T19:52:10.295Z,1019.51
2017-11-15T19:53:10.320Z,1019.53
2017-11-15T19:54:10.312Z,1019.46
2017-11-15T19:55:10.350Z,1019.47
2017-11-15T19:56:10.337Z,1019.45
2017-11-15T19:57:10.361Z,1019.41
2017-11-15T19:58:10.356Z,1019.37
2017-11-15T19:59:10.356Z,1019.39
2017-11-15T20:00:10.362Z,1019.39
2017-11-15T20:01:10.386Z,1019.43
2017-11-15T20:02:10.378Z,1019.44
2017-11-15T20:03:10.400Z,1019.38
2017-11-15T20:04:10.397Z,1019.41
2017-11-15T20:05:10.411Z,1019.33
2017-11-15T20:06:10.407Z,1019.39
2017-11-15T20:07:10.420Z,1019.32
2017-11-15T20:08:10.424Z,1019.33
2017-11-15T20:09:10.541Z,1019.38
2017-11-15T20:10:10.445Z,1019.35
2017-11-15T20:11:10.555Z,1019.37
2017-11-15T20:12:10.457Z,1019.30
2017-11-15T20:13:10.572Z,1019.35
2017-11-15T20:14:10.472Z,1019.32
2017-11-15T20:15:10.486Z,1019.27
2017-11-15T20:16:10.496Z,1019.28
2017-11-15T20:17:10.603Z,1019.31
2017-11-15T20:18:10.510Z,1019.24
2017-11-15T20:19:10.601Z,1019.30
2017-11-15T20:20:10.526Z,1019.33
2017-11-15T20:21:10.615Z,1019.27
2017-11-15T20:22:10.536Z,1019.32
2017-11-15T20:23:10.621Z,1019.34
2017-11-15T20:24:10.559Z,1019.34
2017-11-15T20:25:10.648Z,1019.32
2017-11-15T20:26:10.595Z,1019.34
2017-11-15T20:27:10.660Z,1019.30
2017-11-15T20:28:10.587Z,1019.29
2017-11-15T20:29:10.667Z,1019.33
2017-11-15T20:30:10.605Z,1019.30
2017-11-15T20:31:10.655Z,1019.33
2017-11-15T20:32:10.617Z,1019.35
2017-11-15T20:33:10.667Z,1019.35
2017-11-15T20:34:10.639Z,1019.32
2017-11-15T20:35:10.683Z,1019.30
2017-11-15T20:36:10.652Z,1019.34
2017-11-15T20:37:10.696Z,1019.35
2017-11-15T20:38:10.671Z,1019.36
2017-11-15T20:39:10.708Z,1019.36
2017-11-15T20:40:10.688Z,1019.34
2017-11-15T20:41:10.824Z,1019.33
2017-11-15T20:42:10.702Z,1019.36
2017-11-15T20:43:10.851Z,1019.33
2017-11-15T20:44:10.753Z,1019.33
2017-11-15T20:45:11.786Z,1019.34
2017-11-15T20:46:10.735Z,1019.32
2017-11-15T20:47:10.774Z,1019.35
2017-11-15T20:48:10.753Z,1019.32
2017-11-15T20:49:10.891Z,1019.35
2017-11-15T20:50:10.780Z,1019.36
2017-11-15T20:51:10.902Z,1019.37
2017-11-15T20:52:10.784Z,1019.39
2017-11-15T20:53:10.917Z,1019.36
2017-11-15T20:54:10.810Z,1019.42
2017-11-15T20:55:10.929Z,1019.38
2017-11-15T20:56:10.821Z,1019.42
2017-11-15T20:57:10.943Z,1019.46
2017-11-15T20:58:10.837Z,1019.38
2017-11-15T20:59:10.861Z,1019.42
2017-11-15T21:00:10.959Z,1019.37
2017-11-15T21:01:10.858Z,1019.42
2017-11-15T21:02:10.979Z,1019.45
2017-11-15T21:03:10.880Z,1019.42
2017-11-15T21:04:10.990Z,1019.48
2017-11-15T21:05:10.890Z,1019.46
2017-11-15T21:06:11.002Z,1019.48
2017-11-15T21:07:10.908Z,1019.51
2017-11-15T21:08:11.016Z,1019.51
2017-11-15T21:09:10.925Z,1019.51
2017-11-15T21:10:11.033Z,1019.50
2017-11-15T21:11:10.937Z,1019.52
2017-11-15T21:12:11.049Z,1019.49
2017-11-15T21:13:10.949Z,1019.57
2017-11-15T21:14:10.960Z,1019.56
2017-11-15T21:15:11.047Z,1019.59
2017-11-15T21:16:10.985Z,1019.53
2017-11-15T21:17:11.112Z,1019.54
2017-11-15T21:18:10.996Z,1019.53
2017-11-15T21:19:11.000Z,1019.50
2017-11-15T21:20:11.015Z,1019.50
2017-11-15T21:21:11.021Z,1019.54
2017-11-15T21:22:11.029Z,1019.51
2017-11-15T21:23:11.040Z,1019.47
2017-11-15T21:24:11.044Z,1019.47
2017-11-15T21:25:11.045Z,1019.53
2017-11-15T21:26:11.058Z,1019.53
2017-11-15T21:27:11.181Z,1019.46
2017-11-15T21:28:11.067Z,1019.47
2017-11-15T21:29:11.194Z,1019.45
2017-11-15T21:30:11.089Z,1019.49
2017-11-15T21:31:11.206Z,1019.45
2017-11-15T21:32:11.115Z,1019.50
2017-11-15T21:33:11.220Z,1019.46
2017-11-15T21:34:11.118Z,1019.48
2017-11-15T21:35:11.246Z,1019.42
2017-11-15T21:36:11.142Z,1019.44
2017-11-15T21:37:11.258Z,1019.42
2017-11-15T21:38:11.156Z,1019.38
2017-11-15T21:39:11.158Z,1019.37
2017-11-15T21:40:11.281Z,1019.35
2017-11-15T21:41:11.183Z,1019.39
2017-11-15T21:42:11.301Z,1019.45
2017-11-15T21:43:11.193Z,1019.45
2017-11-15T21:44:11.201Z,1019.39
2017-11-15T21:45:11.213Z,1019.42
2017-11-15T21:46:11.320Z,1019.42
2017-11-15T21:47:11.234Z,1019.45
2017-11-15T21:48:11.434Z,1019.39
2017-11-15T21:49:11.244Z,1019.38
2017-11-15T21:50:11.447Z,1019.34
2017-11-15T21:51:11.258Z,1019.38
2017-11-15T21:52:11.464Z,1019.40
2017-11-15T21:53:11.280Z,1019.40
2017-11-15T21:54:11.420Z,1019.41
2017-11-15T21:55:11.300Z,1019.38
2017-11-15T21:56:11.438Z,1019.40
2017-11-15T21:57:11.309Z,1019.47
2017-11-15T21:58:11.508Z,1019.40
2017-11-15T21:59:11.320Z,1019.43
2017-11-15T22:00:11.527Z,1019.39
2017-11-15T22:01:11.341Z,1019.39
2017-11-15T22:02:11.356Z,1019.44
2017-11-15T22:03:11.354Z,1019.39
2017-11-15T22:04:11.550Z,1019.44
2017-11-15T22:05:11.371Z,1019.36
2017-11-15T22:06:11.379Z,1019.38
2017-11-15T22:07:11.386Z,1019.38
2017-11-15T22:08:11.395Z,1019.42
2017-11-15T22:09:11.405Z,1019.37
2017-11-15T22:10:11.412Z,1019.44
2017-11-15T22:11:11.418Z,1019.40
2017-11-15T22:12:11.433Z,1019.38
2017-11-15T22:13:11.613Z,1019.41
2017-11-15T22:14:11.440Z,1019.39
2017-11-15T22:15:11.626Z,1019.42
2017-11-15T22:16:11.460Z,1019.32
2017-11-15T22:17:11.468Z,1019.38
2017-11-15T22:18:11.476Z,1019.38
2017-11-15T22:19:11.655Z,1019.42
2017-11-15T22:20:11.488Z,1019.34
2017-11-15T22:21:11.498Z,1019.40
2017-11-15T22:22:11.681Z,1019.38
2017-11-15T22:23:11.553Z,1019.39
2017-11-15T22:24:11.686Z,1019.38
2017-11-15T22:25:11.544Z,1019.40
2017-11-15T22:26:11.540Z,1019.39
2017-11-15T22:27:11.712Z,1019.38
2017-11-15T22:28:11.553Z,1019.40
2017-11-15T22:29:11.718Z,1019.36
2017-11-15T22:30:11.570Z,1019.38
2017-11-15T22:31:11.632Z,1019.42
2017-11-15T22:32:11.588Z,1019.38
2017-11-15T22:33:11.646Z,1019.37
2017-11-15T22:34:11.605Z,1019.34
2017-11-15T22:35:11.658Z,1019.32
2017-11-15T22:36:11.612Z,1019.36
2017-11-15T22:37:11.672Z,1019.36
2017-11-15T22:38:11.623Z,1019.35
2017-11-15T22:39:11.773Z,1019.31
2017-11-15T22:40:11.644Z,1019.33
2017-11-15T22:41:11.652Z,1019.34
2017-11-15T22:42:11.663Z,1019.31
2017-11-15T22:43:11.670Z,1019.27
2017-11-15T22:44:11.674Z,1019.31
2017-11-15T22:45:11.685Z,1019.32
2017-11-15T22:46:12.847Z,1019.25
2017-11-15T22:47:11.698Z,1019.27
2017-11-15T22:48:12.863Z,1019.33
2017-11-15T22:49:11.723Z,1019.29
2017-11-15T22:50:11.718Z,1019.30
2017-11-15T22:51:11.740Z,1019.30
2017-11-15T22:52:11.744Z,1019.31
2017-11-15T22:53:11.793Z,1019.25
2017-11-15T22:54:11.776Z,1019.29
2017-11-15T22:55:11.987Z,1019.28
2017-11-15T22:56:11.786Z,1019.27
2017-11-15T22:57:11.790Z,1019.25
2017-11-15T22:58:12.004Z,1019.23
2017-11-15T22:59:11.805Z,1019.24
2017-11-15T23:00:11.813Z,1019.24
2017-11-15T23:01:12.026Z,1019.23
2017-11-15T23:02:11.827Z,1019.23
2017-11-15T23:03:11.832Z,1019.21
2017-11-15T23:04:12.045Z,1019.18
2017-11-15T23:05:11.848Z,1019.17
2017-11-15T23:06:11.856Z,1019.19
2017-11-15T23:07:12.065Z,1019.22
2017-11-15T23:08:11.885Z,1019.20
2017-11-15T23:09:11.901Z,1019.18
2017-11-15T23:10:11.895Z,1019.16
2017-11-15T23:11:11.896Z,1019.18
2017-11-15T23:12:11.906Z,1019.18
2017-11-15T23:13:11.949Z,1019.17
2017-11-15T23:14:11.917Z,1019.17
2017-11-15T23:15:11.933Z,1019.14
2017-11-15T23:16:12.124Z,1019.13
2017-11-15T23:17:11.942Z,1019.15
2017-11-15T23:18:11.953Z,1019.13
2017-11-15T23:19:11.965Z,1019.12
2017-11-15T23:20:11.968Z,1019.11
2017-11-15T23:21:11.974Z,1019.10
2017-11-15T23:22:11.986Z,1019.11
2017-11-15T23:23:11.990Z,1019.07
2017-11-15T23:24:11.997Z,1019.11
2017-11-15T23:25:12.004Z,1019.07
2017-11-15T23:26:12.013Z,1019.06
2017-11-15T23:27:12.020Z,1019.04
2017-11-15T23:28:12.104Z,1019.04
2017-11-15T23:29:12.050Z,1019.00
2017-11-15T23:30:12.052Z,1018.98
2017-11-15T23:31:12.065Z,1019.00
2017-11-15T23:32:12.071Z,1018.96
2017-11-15T23:33:12.074Z,1018.95
2017-11-15T23:34:12.088Z,1018.93
2017-11-15T23:35:12.089Z,1018.91
2017-11-15T23:36:12.090Z,1018.91
2017-11-15T23:37:12.182Z,1018.88
2017-11-15T23:38:12.104Z,1018.89
2017-11-15T23:39:12.118Z,1018.91
2017-11-15T23:40:12.119Z,1018.94
2017-11-15T23:41:12.264Z,1018.89
2017-11-15T23:42:12.139Z,1018.84
2017-11-15T23:43:12.142Z,1018.92
2017-11-15T23:44:12.156Z,1018.88
2017-11-15T23:45:12.158Z,1018.88
2017-11-15T23:46:12.263Z,1018.87
2017-11-15T23:47:12.178Z,1018.85
2017-11-15T23:48:12.278Z,1018.92
2017-11-15T23:49:12.197Z,1018.84
2017-11-15T23:50:12.289Z,1018.80
2017-11-15T23:51:12.210Z,1018.80
2017-11-15T23:52:12.300Z,1018.78
2017-11-15T23:53:12.227Z,1018.81
2017-11-15T23:54:12.307Z,1018.79
2017-11-15T23:55:12.241Z,1018.79
2017-11-15T23:56:12.326Z,1018.78
2017-11-15T23:57:12.259Z,1018.83
2017-11-15T23:58:12.338Z,1018.87
2017-11-15T23:59:12.271Z,1018.75
